createdAt,value
2018-11-27T00:00:23.151Z,22.57
2018-11-27T00:02:54.059Z,21.37
2018-11-27T00:05:22.877Z,20.23
2018-11-27T00:07:51.141Z,22.87
2018-11-27T00:10:19.445Z,19.77
2018-11-27T00:12:47.645Z,18.67
2018-11-27T00:15:15.906Z,21.43
2018-11-27T00:17:44.178Z,20.80
2018-11-27T00:20:13.381Z,20.87
2018-11-27T00:22:41.752Z,18.37
2018-11-27T00:25:11.309Z,20.73
2018-11-27T00:27:39.553Z,19.57
2018-11-27T00:30:10.938Z,20.30
2018-11-27T00:32:39.269Z,19.37
2018-11-27T00:35:09.777Z,20.03
2018-11-27T00:37:38.277Z,17.23
2018-11-27T00:40:14.880Z,19.30
2018-11-27T00:42:43.154Z,20.43
2018-11-27T00:45:12.529Z,20.40
2018-11-27T00:47:41.131Z,20.77
2018-11-27T00:50:11.836Z,16.07
2018-11-27T00:52:40.101Z,18.20
2018-11-27T00:55:11.395Z,16.77
2018-11-27T00:57:40.320Z,19.17
2018-11-27T01:00:24.458Z,18.37
2018-11-27T01:02:52.852Z,17.57
2018-11-27T01:05:22.381Z,17.47
2018-11-27T01:07:50.962Z,20.23
2018-11-27T01:10:24.016Z,19.17
2018-11-27T01:12:52.477Z,19.77
2018-11-27T01:15:20.754Z,19.67
2018-11-27T01:17:50.220Z,21.07
2018-11-27T01:20:19.975Z,15.40
2018-11-27T01:22:48.433Z,18.40
2018-11-27T01:25:16.786Z,21.63
2018-11-27T01:27:45.113Z,17.20
2018-11-27T01:30:14.411Z,18.70
2018-11-27T01:32:42.752Z,21.77
2018-11-27T01:35:15.050Z,16.90
2018-11-27T01:37:43.354Z,16.20
2018-11-27T01:40:16.858Z,17.13
2018-11-27T01:42:45.517Z,17.60
2018-11-27T01:45:14.715Z,15.93
2018-11-27T01:47:42.908Z,15.33
2018-11-27T01:50:12.229Z,17.80
2018-11-27T01:52:40.557Z,17.60
2018-11-27T01:55:10.058Z,17.50
2018-11-27T01:57:38.864Z,15.77
2018-11-27T02:00:10.623Z,17.90
2018-11-27T02:02:38.961Z,15.70
2018-11-27T02:05:08.150Z,19.17
2018-11-27T02:07:36.450Z,17.57
2018-11-27T02:10:08.417Z,15.40
2018-11-27T02:12:36.967Z,19.87
2018-11-27T02:15:08.019Z,16.93
2018-11-27T02:17:37.306Z,19.13
2018-11-27T02:20:07.158Z,17.97
2018-11-27T02:22:35.362Z,19.37
2018-11-27T02:25:04.269Z,18.23
2018-11-27T02:27:33.127Z,18.07
2018-11-27T02:30:01.562Z,14.67
2018-11-27T02:32:29.872Z,21.33
2018-11-27T02:34:58.159Z,20.83
2018-11-27T02:37:26.443Z,17.20
2018-11-27T02:39:54.766Z,20.07
2018-11-27T02:42:23.075Z,21.03
2018-11-27T02:44:51.335Z,19.20
2018-11-27T02:47:21.663Z,20.03
2018-11-27T02:49:49.917Z,21.13
2018-11-27T02:52:18.262Z,17.60
2018-11-27T02:54:46.477Z,17.60
2018-11-27T02:57:14.734Z,19.90
2018-11-27T02:59:43.909Z,20.60
2018-11-27T03:02:12.201Z,21.57
2018-11-27T03:04:41.052Z,21.97
2018-11-27T03:07:09.320Z,20.60
2018-11-27T03:09:37.658Z,19.27
2018-11-27T03:12:06.041Z,22.07
2018-11-27T03:14:34.300Z,21.73
2018-11-27T03:17:02.630Z,20.57
2018-11-27T03:19:30.877Z,18.77
2018-11-27T03:21:59.142Z,16.00
2018-11-27T03:24:28.053Z,21.53
2018-11-27T03:26:56.331Z,22.20
2018-11-27T03:29:24.616Z,18.67
2018-11-27T03:31:53.442Z,19.57
2018-11-27T03:34:21.693Z,21.57
2018-11-27T03:36:49.937Z,19.47
2018-11-27T03:39:18.253Z,17.00
2018-11-27T03:41:46.570Z,20.60
2018-11-27T03:44:14.838Z,18.03
2018-11-27T03:46:43.142Z,18.23
2018-11-27T03:49:11.500Z,19.60
2018-11-27T03:51:40.433Z,19.03
2018-11-27T03:54:08.674Z,19.30
2018-11-27T03:56:37.646Z,19.67
2018-11-27T03:59:06.310Z,18.50
2018-11-27T04:01:34.901Z,15.83
2018-11-27T04:04:21.960Z,20.13
2018-11-27T04:06:50.222Z,21.00
2018-11-27T04:09:18.477Z,18.97
2018-11-27T04:11:46.937Z,19.77
2018-11-27T04:14:15.180Z,21.33
2018-11-27T04:16:43.528Z,21.13
2018-11-27T04:19:11.806Z,20.40
2018-11-27T04:21:40.150Z,24.40
2018-11-27T04:24:08.394Z,21.50
2018-11-27T04:26:36.721Z,20.97
2018-11-27T04:29:05.180Z,22.23
2018-11-27T04:31:33.518Z,22.47
2018-11-27T04:34:01.826Z,20.43
2018-11-27T04:36:30.023Z,18.20
2018-11-27T04:38:58.302Z,20.80
2018-11-27T04:41:26.561Z,21.37
2018-11-27T04:43:54.873Z,20.10
2018-11-27T04:46:23.729Z,22.73
2018-11-27T04:48:52.041Z,22.57
2018-11-27T04:51:20.318Z,20.77
2018-11-27T04:53:48.542Z,22.63
2018-11-27T04:56:16.885Z,25.70
2018-11-27T04:58:45.162Z,21.90
2018-11-27T05:01:13.990Z,21.30
2018-11-27T05:03:42.337Z,25.33
2018-11-27T05:06:10.631Z,20.87
2018-11-27T05:08:38.915Z,20.67
2018-11-27T05:11:08.143Z,22.37
2018-11-27T05:13:36.381Z,20.87
2018-11-27T05:16:05.510Z,20.60
2018-11-27T05:18:33.930Z,19.70
2018-11-27T05:21:02.189Z,22.57
2018-11-27T05:23:30.496Z,22.50
2018-11-27T05:25:58.773Z,22.53
2018-11-27T05:28:27.171Z,23.33
2018-11-27T05:30:55.432Z,26.20
2018-11-27T05:33:23.755Z,23.73
2018-11-27T05:35:52.029Z,21.20
2018-11-27T05:38:21.046Z,23.57
2018-11-27T05:40:49.301Z,22.10
2018-11-27T05:43:18.278Z,19.63
2018-11-27T05:45:46.505Z,24.10
2018-11-27T05:48:14.756Z,24.20
2018-11-27T05:50:42.976Z,26.12
2018-11-27T05:53:11.317Z,22.30
2018-11-27T05:55:39.641Z,22.53
2018-11-27T05:58:07.986Z,23.30
2018-11-27T06:00:36.547Z,24.93
2018-11-27T06:03:06.944Z,24.77
2018-11-27T06:05:35.413Z,24.00
2018-11-27T06:08:03.709Z,23.93
2018-11-27T06:10:31.963Z,24.33
2018-11-27T06:13:00.291Z,26.63
2018-11-27T06:15:28.569Z,24.83
2018-11-27T06:17:58.198Z,26.37
2018-11-27T06:20:26.486Z,24.60
2018-11-27T06:22:54.985Z,26.77
2018-11-27T06:25:25.417Z,23.90
2018-11-27T06:27:58.631Z,25.57
2018-11-27T06:30:27.743Z,21.93
2018-11-27T06:32:56.025Z,25.97
2018-11-27T06:35:27.401Z,24.13
2018-11-27T06:37:55.722Z,19.37
2018-11-27T06:40:25.393Z,24.60
2018-11-27T06:42:53.870Z,19.83
2018-11-27T06:45:22.377Z,22.80
2018-11-27T06:47:51.651Z,22.93
2018-11-27T06:50:20.714Z,24.27
2018-11-27T06:52:51.220Z,22.07
2018-11-27T06:55:21.352Z,20.77
2018-11-27T06:57:49.697Z,22.73
2018-11-27T07:00:19.747Z,25.73
2018-11-27T07:02:48.078Z,19.97
2018-11-27T07:05:16.429Z,24.93
2018-11-27T07:07:44.741Z,25.00
2018-11-27T07:10:27.597Z,26.60
2018-11-27T07:12:57.416Z,28.10
2018-11-27T07:15:25.741Z,26.60
2018-11-27T07:17:54.496Z,23.83
2018-11-27T07:20:22.708Z,25.63
2018-11-27T07:22:51.004Z,20.30
2018-11-27T07:25:20.230Z,22.17
2018-11-27T07:27:49.753Z,22.50
2018-11-27T07:30:20.361Z,26.57
2018-11-27T07:32:48.238Z,22.83
2018-11-27T07:35:17.186Z,23.40
2018-11-27T07:37:46.533Z,23.17
2018-11-27T07:40:18.261Z,25.03
2018-11-27T07:42:46.701Z,25.83
2018-11-27T07:45:17.054Z,25.53
2018-11-27T07:47:46.402Z,27.07
2018-11-27T07:50:15.303Z,23.43
2018-11-27T07:52:43.599Z,31.67
2018-11-27T07:55:13.645Z,26.17
2018-11-27T07:57:42.010Z,25.40
2018-11-27T08:00:12.647Z,23.90
2018-11-27T08:02:41.142Z,28.73
2018-11-27T08:05:10.745Z,23.70
2018-11-27T08:07:39.394Z,29.27
2018-11-27T08:10:13.482Z,27.90
2018-11-27T08:12:41.886Z,26.63
2018-11-27T08:15:13.433Z,28.67
2018-11-27T08:17:41.929Z,26.30
2018-11-27T08:20:13.405Z,25.13
2018-11-27T08:22:41.865Z,26.23
2018-11-27T08:25:11.401Z,27.30
2018-11-27T08:27:39.658Z,29.47
2018-11-27T08:30:13.064Z,23.17
2018-11-27T08:32:41.268Z,25.47
2018-11-27T08:35:14.630Z,29.20
2018-11-27T08:37:43.131Z,27.97
2018-11-27T08:40:12.389Z,23.93
2018-11-27T08:42:40.771Z,26.80
2018-11-27T08:45:11.589Z,26.13
2018-11-27T08:47:46.925Z,28.27
2018-11-27T08:50:17.298Z,25.77
2018-11-27T08:52:47.761Z,27.37
2018-11-27T08:55:19.433Z,26.30
2018-11-27T08:57:47.873Z,24.43
2018-11-27T09:00:18.345Z,25.30
2018-11-27T09:02:46.755Z,24.63
2018-11-27T09:05:15.167Z,26.53
2018-11-27T09:07:43.859Z,25.60
2018-11-27T09:10:14.213Z,22.83
2018-11-27T09:12:42.498Z,24.20
2018-11-27T09:15:13.156Z,27.07
2018-11-27T09:17:43.482Z,24.20
2018-11-27T09:20:12.304Z,25.77
2018-11-27T09:22:40.554Z,26.47
2018-11-27T09:25:12.260Z,23.57
2018-11-27T09:27:40.494Z,27.50
2018-11-27T09:30:14.954Z,27.50
2018-11-27T09:32:43.232Z,21.27
2018-11-27T09:35:11.717Z,23.73
2018-11-27T09:37:39.977Z,26.70
2018-11-27T09:40:10.954Z,26.40
2018-11-27T09:42:39.269Z,26.87
2018-11-27T09:45:09.786Z,25.00
2018-11-27T09:47:38.073Z,24.83
2018-11-27T09:50:09.159Z,25.20
2018-11-27T09:52:37.437Z,23.30
2018-11-27T09:55:09.760Z,26.53
2018-11-27T09:57:37.994Z,25.57
2018-11-27T10:00:18.075Z,22.63
2018-11-27T10:02:47.063Z,29.70
2018-11-27T10:05:15.799Z,30.37
2018-11-27T10:07:44.051Z,25.57
2018-11-27T10:10:13.813Z,24.97
2018-11-27T10:12:42.084Z,30.03
2018-11-27T10:15:13.782Z,25.13
2018-11-27T10:17:42.095Z,28.67
2018-11-27T10:20:12.469Z,28.83
2018-11-27T10:22:40.793Z,26.43
2018-11-27T10:25:11.030Z,28.17
2018-11-27T10:27:39.518Z,28.10
2018-11-27T10:30:17.047Z,31.30
2018-11-27T10:32:45.433Z,31.87
2018-11-27T10:35:19.995Z,29.23
2018-11-27T10:37:48.190Z,29.33
2018-11-27T10:40:16.453Z,29.60
2018-11-27T10:42:45.143Z,26.13
2018-11-27T10:45:15.392Z,30.83
2018-11-27T10:47:44.318Z,27.80
2018-11-27T10:50:13.545Z,28.57
2018-11-27T10:52:42.963Z,30.43
2018-11-27T10:55:12.502Z,32.80
2018-11-27T10:57:41.389Z,31.30
2018-11-27T11:00:23.892Z,32.20
2018-11-27T11:02:57.789Z,32.33
2018-11-27T11:05:34.105Z,32.87
2018-11-27T11:08:02.384Z,32.30
2018-11-27T11:10:31.113Z,48.23
2018-11-27T11:12:59.982Z,28.77
2018-11-27T11:15:28.251Z,34.80
2018-11-27T11:17:57.477Z,36.07
2018-11-27T11:20:25.881Z,30.87
2018-11-27T11:22:54.834Z,34.17
2018-11-27T11:25:24.349Z,36.43
2018-11-27T11:27:57.499Z,39.70
2018-11-27T11:30:25.822Z,36.17
2018-11-27T11:32:54.118Z,35.77
2018-11-27T11:35:23.031Z,37.93
2018-11-27T11:37:52.078Z,33.10
2018-11-27T11:40:21.653Z,40.23
2018-11-27T11:42:51.240Z,39.47
2018-11-27T11:45:19.628Z,37.90
2018-11-27T11:47:47.841Z,39.37
2018-11-27T11:50:21.125Z,36.53
2018-11-27T11:52:52.877Z,38.50
2018-11-27T11:55:21.777Z,37.47
2018-11-27T11:57:50.389Z,41.77
2018-11-27T12:00:22.978Z,39.83
2018-11-27T12:02:51.266Z,40.50
2018-11-27T12:05:24.872Z,44.40
2018-11-27T12:07:47.829Z,45.23
2018-11-27T12:10:16.721Z,49.57
2018-11-27T12:12:46.046Z,40.43
2018-11-27T12:15:15.365Z,42.17
2018-11-27T12:17:44.178Z,48.93
2018-11-27T12:20:14.469Z,47.73
2018-11-27T12:22:43.939Z,46.77
2018-11-27T12:25:13.058Z,46.17
2018-11-27T12:27:41.418Z,45.93
2018-11-27T12:30:12.085Z,49.57
2018-11-27T12:32:40.475Z,48.47
2018-11-27T12:35:10.322Z,47.90
2018-11-27T12:37:38.586Z,49.93
2018-11-27T12:40:15.998Z,47.70
2018-11-27T12:42:44.320Z,47.73
2018-11-27T12:45:16.581Z,44.20
2018-11-27T12:47:45.207Z,54.33
2018-11-27T12:50:14.687Z,50.27
2018-11-27T12:52:43.397Z,42.00
2018-11-27T12:55:13.745Z,48.33
2018-11-27T12:57:42.697Z,51.47
2018-11-27T13:00:13.656Z,52.07
2018-11-27T13:02:42.386Z,49.73
2018-11-27T13:05:12.112Z,57.90
2018-11-27T13:07:40.443Z,48.73
2018-11-27T13:10:11.957Z,49.87
2018-11-27T13:12:40.309Z,52.40
2018-11-27T13:15:11.222Z,44.83
2018-11-27T13:17:40.910Z,51.43
2018-11-27T13:20:11.245Z,50.43
2018-11-27T13:22:39.601Z,54.00
2018-11-27T13:25:10.761Z,54.53
2018-11-27T13:27:39.014Z,50.63
2018-11-27T13:30:11.947Z,52.17
2018-11-27T13:32:40.249Z,51.53
2018-11-27T13:35:10.633Z,50.43
2018-11-27T13:37:38.901Z,53.87
2018-11-27T13:40:08.830Z,50.97
2018-11-27T13:42:37.090Z,50.70
2018-11-27T13:45:08.341Z,50.00
2018-11-27T13:47:36.573Z,52.93
2018-11-27T13:50:05.977Z,51.33
2018-11-27T13:52:34.221Z,54.97
2018-11-27T13:55:02.494Z,51.70
2018-11-27T13:57:30.741Z,54.37
2018-11-27T13:59:59.022Z,52.57
2018-11-27T14:02:27.249Z,50.73
2018-11-27T14:04:56.051Z,49.97
2018-11-27T14:07:24.313Z,52.77
2018-11-27T14:09:52.642Z,54.27
2018-11-27T14:12:20.910Z,45.90
2018-11-27T14:14:49.166Z,52.30
2018-11-27T14:17:17.602Z,53.93
2018-11-27T14:19:45.853Z,51.77
2018-11-27T14:22:14.106Z,49.27
2018-11-27T14:24:42.365Z,48.63
2018-11-27T14:27:11.005Z,50.67
2018-11-27T14:29:39.403Z,54.50
2018-11-27T14:32:07.630Z,49.03
2018-11-27T14:34:35.878Z,50.37
2018-11-27T14:37:04.129Z,55.63
2018-11-27T14:39:32.339Z,51.20
2018-11-27T14:42:00.577Z,48.50
2018-11-27T14:44:28.822Z,49.93
2018-11-27T14:46:57.777Z,51.77
2018-11-27T14:49:26.033Z,47.53
2018-11-27T14:51:54.265Z,56.10
2018-11-27T14:54:22.504Z,54.00
2018-11-27T14:56:51.398Z,54.70
2018-11-27T14:59:19.697Z,57.03
2018-11-27T15:01:47.937Z,54.43
2018-11-27T15:04:16.217Z,54.33
2018-11-27T15:06:44.453Z,57.33
2018-11-27T15:09:12.901Z,54.23
2018-11-27T15:11:41.137Z,54.77
2018-11-27T15:14:09.418Z,52.30
2018-11-27T15:16:37.672Z,51.70
2018-11-27T15:19:06.555Z,51.23
2018-11-27T15:21:34.835Z,51.97
2018-11-27T15:24:03.068Z,49.53
2018-11-27T15:26:31.276Z,52.03
2018-11-27T15:28:59.513Z,58.43
2018-11-27T15:31:27.856Z,51.10
2018-11-27T15:33:56.141Z,53.83
2018-11-27T15:36:24.401Z,55.07
2018-11-27T15:38:52.727Z,52.80
2018-11-27T15:41:21.041Z,56.77
2018-11-27T15:43:49.413Z,56.87
2018-11-27T15:46:17.564Z,55.90
2018-11-27T15:48:45.778Z,56.23
2018-11-27T15:51:14.079Z,59.57
2018-11-27T15:53:43.272Z,56.90
2018-11-27T15:56:11.626Z,54.63
2018-11-27T15:58:40.813Z,55.50
2018-11-27T16:01:09.297Z,53.90
2018-11-27T16:03:37.722Z,61.07
2018-11-27T16:06:06.786Z,53.03
2018-11-27T16:08:35.290Z,52.03
2018-11-27T16:11:03.549Z,58.78
2018-11-27T16:13:31.739Z,56.17
2018-11-27T16:15:59.978Z,56.03
2018-11-27T16:18:28.261Z,57.63
2018-11-27T16:20:57.337Z,66.57
2018-11-27T16:23:25.605Z,53.93
2018-11-27T16:25:54.531Z,52.50
2018-11-27T16:28:22.962Z,53.87
2018-11-27T16:30:51.361Z,59.30
2018-11-27T16:33:19.626Z,60.40
2018-11-27T16:35:47.860Z,50.67
2018-11-27T16:38:17.089Z,63.43
2018-11-27T16:40:45.336Z,58.30
2018-11-27T16:43:14.530Z,52.70
2018-11-27T16:45:42.738Z,54.60
2018-11-27T16:48:11.041Z,52.33
2018-11-27T16:50:39.297Z,52.87
2018-11-27T16:53:07.541Z,52.87
2018-11-27T16:55:35.793Z,48.67
2018-11-27T16:58:04.103Z,46.40
2018-11-27T17:00:34.373Z,59.67
2018-11-27T17:03:03.737Z,55.30
2018-11-27T17:05:33.880Z,50.40
2018-11-27T17:08:02.257Z,55.73
2018-11-27T17:10:30.566Z,52.87
2018-11-27T17:12:59.022Z,43.50
2018-11-27T17:15:28.010Z,50.33
2018-11-27T17:17:57.160Z,55.50
2018-11-27T17:20:29.469Z,52.33
2018-11-27T17:22:59.906Z,52.80
2018-11-27T17:25:28.154Z,51.90
2018-11-27T17:28:29.217Z,52.53
2018-11-27T17:31:04.977Z,48.50
2018-11-27T17:33:37.971Z,49.10
2018-11-27T17:36:08.198Z,50.30
2018-11-27T17:38:37.333Z,48.67
2018-11-27T17:41:06.487Z,52.20
2018-11-27T17:43:35.509Z,54.67
2018-11-27T17:46:04.356Z,45.57
2018-11-27T17:48:32.601Z,50.03
2018-11-27T17:51:00.805Z,49.73
2018-11-27T17:53:29.083Z,54.27
2018-11-27T17:55:57.373Z,46.00
2018-11-27T17:58:25.661Z,45.20
2018-11-27T18:00:53.872Z,46.63
2018-11-27T18:03:22.119Z,51.27
2018-11-27T18:05:50.313Z,49.33
2018-11-27T18:08:18.593Z,49.17
2018-11-27T18:10:46.953Z,48.57
2018-11-27T18:13:15.699Z,51.93
2018-11-27T18:15:44.038Z,45.83
2018-11-27T18:18:12.457Z,49.37
2018-11-27T18:20:40.669Z,49.20
2018-11-27T18:23:08.892Z,46.13
2018-11-27T18:25:37.116Z,49.13
2018-11-27T18:28:05.536Z,54.33
2018-11-27T18:30:34.973Z,51.37
2018-11-27T18:33:03.594Z,48.53
2018-11-27T18:35:31.837Z,43.60
2018-11-27T18:38:01.301Z,50.90
2018-11-27T18:40:29.549Z,50.50
2018-11-27T18:42:57.945Z,44.97
2018-11-27T18:45:28.786Z,51.17
2018-11-27T18:47:57.165Z,54.23
2018-11-27T18:50:26.553Z,49.03
2018-11-27T18:52:55.194Z,46.47
2018-11-27T18:55:23.552Z,48.67
2018-11-27T18:57:51.874Z,50.67
2018-11-27T19:00:22.437Z,48.10
2018-11-27T19:02:50.725Z,48.17
2018-11-27T19:05:19.464Z,51.20
2018-11-27T19:07:47.752Z,44.17
2018-11-27T19:10:25.882Z,52.20
2018-11-27T19:12:54.175Z,48.70
2018-11-27T19:15:31.026Z,51.00
2018-11-27T19:18:00.943Z,50.20
2018-11-27T19:20:29.507Z,52.00
2018-11-27T19:22:58.035Z,49.07
2018-11-27T19:25:27.017Z,49.10
2018-11-27T19:27:55.309Z,50.07
2018-11-27T19:30:24.806Z,47.97
2018-11-27T19:32:53.117Z,47.43
2018-11-27T19:35:25.324Z,50.67
2018-11-27T19:37:51.413Z,42.63
2018-11-27T19:40:20.094Z,45.40
2018-11-27T19:42:48.389Z,55.60
2018-11-27T19:45:19.181Z,52.13
2018-11-27T19:47:47.674Z,44.60
2018-11-27T19:50:16.001Z,45.97
2018-11-27T19:52:45.984Z,49.40
2018-11-27T19:55:15.814Z,53.90
2018-11-27T19:57:44.036Z,53.70
2018-11-27T20:00:19.973Z,48.77
2018-11-27T20:02:48.248Z,54.90
2018-11-27T20:05:18.613Z,53.83
2018-11-27T20:07:47.187Z,50.03
2018-11-27T20:10:15.849Z,54.97
2018-11-27T20:12:44.211Z,48.47
2018-11-27T20:15:13.900Z,47.33
2018-11-27T20:17:43.136Z,48.73
2018-11-27T20:20:12.627Z,51.67
2018-11-27T20:22:41.336Z,49.80
2018-11-27T20:25:11.968Z,56.33
2018-11-27T20:27:40.529Z,49.27
2018-11-27T20:30:14.685Z,49.10
2018-11-27T20:32:44.228Z,43.90
2018-11-27T20:35:13.745Z,43.57
2018-11-27T20:37:42.164Z,45.77
2018-11-27T20:40:12.517Z,42.43
2018-11-27T20:42:40.864Z,51.47
2018-11-27T20:45:19.141Z,53.47
2018-11-27T20:47:41.556Z,49.23
2018-11-27T20:50:12.524Z,49.37
2018-11-27T20:52:41.017Z,53.80
2018-11-27T20:55:09.373Z,51.93
2018-11-27T20:57:37.920Z,46.60
2018-11-27T21:00:12.076Z,40.60
2018-11-27T21:02:40.415Z,49.63
2018-11-27T21:05:09.155Z,50.87
2018-11-27T21:07:37.459Z,43.70
2018-11-27T21:10:10.244Z,50.87
2018-11-27T21:12:38.852Z,51.23
2018-11-27T21:15:10.001Z,43.53
2018-11-27T21:17:38.370Z,40.73
2018-11-27T21:20:08.653Z,41.50
2018-11-27T21:22:36.984Z,40.00
2018-11-27T21:25:08.953Z,37.53
2018-11-27T21:27:37.544Z,38.43
2018-11-27T21:30:11.933Z,37.23
2018-11-27T21:32:40.542Z,38.17
2018-11-27T21:35:10.394Z,35.03
2018-11-27T21:37:38.814Z,40.83
2018-11-27T21:40:10.462Z,41.17
2018-11-27T21:42:38.775Z,38.60
2018-11-27T21:45:17.277Z,37.80
2018-11-27T21:47:46.582Z,36.80
2018-11-27T21:50:17.123Z,37.80
2018-11-27T21:52:45.573Z,36.33
2018-11-27T21:55:14.622Z,31.13
2018-11-27T21:57:43.193Z,38.67
2018-11-27T22:00:14.147Z,35.87
2018-11-27T22:02:42.432Z,34.63
2018-11-27T22:05:11.289Z,33.30
2018-11-27T22:07:39.674Z,34.60
2018-11-27T22:10:11.082Z,42.20
2018-11-27T22:12:39.690Z,40.77
2018-11-27T22:15:10.773Z,46.33
2018-11-27T22:17:39.063Z,47.87
2018-11-27T22:20:09.414Z,49.57
2018-11-27T22:22:38.222Z,38.43
2018-11-27T22:25:07.860Z,48.77
2018-11-27T22:27:36.456Z,48.67
2018-11-27T22:30:20.697Z,48.30
2018-11-27T22:32:50.157Z,50.37
2018-11-27T22:35:18.523Z,44.00
2018-11-27T22:37:46.798Z,42.33
2018-11-27T22:40:16.161Z,42.33
2018-11-27T22:42:45.162Z,42.93
2018-11-27T22:45:14.749Z,50.53
2018-11-27T22:47:43.162Z,42.13
2018-11-27T22:50:14.345Z,44.23
2018-11-27T22:52:42.829Z,45.83
2018-11-27T22:55:11.445Z,45.03
2018-11-27T22:57:39.799Z,43.30
2018-11-27T23:00:27.402Z,44.27
2018-11-27T23:02:55.883Z,43.17
2018-11-27T23:05:24.277Z,49.47
2018-11-27T23:07:52.528Z,46.43
2018-11-27T23:10:20.764Z,44.93
2018-11-27T23:12:49.001Z,43.83
2018-11-27T23:15:18.503Z,48.13
2018-11-27T23:17:47.049Z,45.77
2018-11-27T23:20:16.549Z,47.43
2018-11-27T23:22:45.069Z,53.63
2018-11-27T23:25:16.204Z,43.87
2018-11-27T23:27:44.639Z,51.07
2018-11-27T23:30:15.224Z,43.53
2018-11-27T23:32:43.683Z,47.00
2018-11-27T23:35:12.330Z,47.23
2018-11-27T23:37:40.731Z,45.80
2018-11-27T23:40:11.845Z,46.77
2018-11-27T23:42:40.426Z,42.87
2018-11-27T23:45:13.584Z,53.77
2018-11-27T23:47:41.831Z,44.93
2018-11-27T23:50:11.811Z,47.93
2018-11-27T23:52:40.055Z,43.97
2018-11-27T23:55:10.147Z,48.13
2018-11-27T23:57:39.457Z,49.77
